createdAt,value
2023-05-25T00:01:04.679Z,100233.91
2023-05-25T00:03:32.399Z,100226.88
2023-05-25T00:06:03.346Z,100227.91
2023-05-25T00:08:30.527Z,100227.28
2023-05-25T00:10:57.566Z,100224.78
2023-05-25T00:13:24.594Z,100234.69
2023-05-25T00:15:51.635Z,100233.03
2023-05-25T00:18:18.875Z,100229.50
2023-05-25T00:20:47.457Z,100234.22
2023-05-25T00:23:14.810Z,100238.75
2023-05-25T00:25:42.005Z,100237.25
2023-05-25T00:28:11.548Z,100226.72
2023-05-25T00:30:39.124Z,100228.78
2023-05-25T00:33:06.793Z,100223.63
2023-05-25T00:35:33.845Z,100232.88
2023-05-25T00:38:00.955Z,100229.53
2023-05-25T00:40:28.125Z,100227.88
2023-05-25T00:42:57.617Z,100226.44
2023-05-25T00:45:24.718Z,100228.66
2023-05-25T00:47:53.080Z,100232.34
2023-05-25T00:50:38.190Z,100227.38
2023-05-25T00:53:07.143Z,100227.75
2023-05-25T00:55:55.953Z,100231.81
2023-05-25T00:58:27.196Z,100237.56
2023-05-25T01:00:57.750Z,100241.25
2023-05-25T01:03:29.708Z,100234.63
2023-05-25T01:05:58.443Z,100239.34
2023-05-25T01:08:27.187Z,100230.03
2023-05-25T01:10:57.120Z,100242.75
2023-05-25T01:13:24.572Z,100236.97
2023-05-25T01:15:52.505Z,100244.34
2023-05-25T01:18:19.501Z,100238.56
2023-05-25T01:21:20.196Z,100242.59
2023-05-25T01:23:58.794Z,100243.00
2023-05-25T01:26:29.799Z,100244.38
2023-05-25T01:29:01.898Z,100240.41
2023-05-25T01:31:29.964Z,100246.16
2023-05-25T01:33:57.939Z,100246.50
2023-05-25T01:36:25.229Z,100241.53
2023-05-25T01:38:52.424Z,100242.09
2023-05-25T01:41:19.439Z,100235.28
2023-05-25T01:43:47.004Z,100245.50
2023-05-25T01:46:36.857Z,100238.91
2023-05-25T01:49:18.776Z,100236.78
2023-05-25T01:51:57.988Z,100237.31
2023-05-25T01:54:38.963Z,100250.22
2023-05-25T01:57:10.656Z,100239.91
2023-05-25T01:59:38.620Z,100237.59
2023-05-25T02:02:07.421Z,100239.81
2023-05-25T02:04:35.450Z,100237.53
2023-05-25T02:07:06.169Z,100239.72
2023-05-25T02:09:33.207Z,100239.06
2023-05-25T02:12:00.916Z,100237.81
2023-05-25T02:14:28.348Z,100240.81
2023-05-25T02:16:55.361Z,100244.03
2023-05-25T02:19:22.344Z,100243.59
2023-05-25T02:21:49.357Z,100234.94
2023-05-25T02:24:16.451Z,100242.66
2023-05-25T02:26:43.449Z,100231.50
2023-05-25T02:29:11.551Z,100239.06
2023-05-25T02:31:38.693Z,100236.72
2023-05-25T02:34:05.929Z,100229.25
2023-05-25T02:36:37.006Z,100227.13
2023-05-25T02:39:05.552Z,100225.00
2023-05-25T02:41:32.599Z,100223.53
2023-05-25T02:44:00.052Z,100224.88
2023-05-25T02:46:27.234Z,100220.75
2023-05-25T02:48:54.265Z,100226.63
2023-05-25T02:51:21.269Z,100229.66
2023-05-25T02:53:48.565Z,100227.34
2023-05-25T02:56:15.603Z,100231.41
2023-05-25T02:58:42.806Z,100234.41
2023-05-25T03:01:18.409Z,100225.13
2023-05-25T03:03:53.392Z,100228.31
2023-05-25T03:06:23.044Z,100224.19
2023-05-25T03:08:54.387Z,100228.19
2023-05-25T03:11:22.458Z,100228.53
2023-05-25T03:13:51.921Z,100220.06
2023-05-25T03:16:23.153Z,100222.25
2023-05-25T03:18:50.336Z,100226.94
2023-05-25T03:21:17.410Z,100235.94
2023-05-25T03:23:44.825Z,100232.47
2023-05-25T03:26:11.935Z,100240.28
2023-05-25T03:28:40.006Z,100240.91
2023-05-25T03:31:07.373Z,100240.91
2023-05-25T03:33:34.590Z,100243.44
2023-05-25T03:36:07.994Z,100246.94
2023-05-25T03:38:38.543Z,100249.59
2023-05-25T03:41:05.896Z,100247.56
2023-05-25T03:43:32.947Z,100248.59
2023-05-25T03:46:00.179Z,100253.91
2023-05-25T03:48:27.221Z,100261.91
2023-05-25T03:50:54.395Z,100258.41
2023-05-25T03:53:22.355Z,100261.91
2023-05-25T03:55:51.992Z,100266.22
2023-05-25T03:58:19.116Z,100256.41
2023-05-25T04:00:49.052Z,100267.88
2023-05-25T04:03:16.455Z,100266.88
2023-05-25T04:05:45.840Z,100264.06
2023-05-25T04:08:26.355Z,100272.88
2023-05-25T04:10:53.351Z,100280.88
2023-05-25T04:13:20.935Z,100287.03
2023-05-25T04:15:48.026Z,100282.53
2023-05-25T04:18:24.623Z,100285.84
2023-05-25T04:20:51.690Z,100287.31
2023-05-25T04:23:21.771Z,100290.84
2023-05-25T04:25:51.179Z,100290.47
2023-05-25T04:28:18.813Z,100292.13
2023-05-25T04:30:57.704Z,100291.78
2023-05-25T04:33:50.762Z,100280.94
2023-05-25T04:36:24.967Z,100288.56
2023-05-25T04:38:55.310Z,100289.06
2023-05-25T04:41:25.864Z,100284.19
2023-05-25T04:44:06.852Z,100288.34
2023-05-25T04:46:38.934Z,100293.97
2023-05-25T04:49:08.346Z,100297.28
2023-05-25T04:51:37.044Z,100300.28
2023-05-25T04:54:04.359Z,100296.22
2023-05-25T04:56:31.434Z,100293.84
2023-05-25T04:58:58.444Z,100294.97
2023-05-25T05:01:26.409Z,100304.13
2023-05-25T05:03:56.335Z,100306.25
2023-05-25T05:06:25.644Z,100301.38
2023-05-25T05:08:52.831Z,100312.34
2023-05-25T05:11:19.952Z,100317.13
2023-05-25T05:13:47.132Z,100313.94
2023-05-25T05:16:14.226Z,100316.91
2023-05-25T05:18:41.643Z,100314.31
2023-05-25T05:21:08.655Z,100319.78
2023-05-25T05:23:36.636Z,100321.72
2023-05-25T05:26:04.986Z,100327.97
2023-05-25T05:28:32.105Z,100327.25
2023-05-25T05:30:59.352Z,100337.00
2023-05-25T05:33:26.544Z,100336.09
2023-05-25T05:35:54.703Z,100335.16
2023-05-25T05:38:22.860Z,100330.94
2023-05-25T05:40:49.896Z,100337.19
2023-05-25T05:43:22.767Z,100333.38
2023-05-25T05:45:49.987Z,100329.78
2023-05-25T05:48:17.023Z,100340.22
2023-05-25T05:50:44.774Z,100345.44
2023-05-25T05:53:13.203Z,100343.47
2023-05-25T05:55:40.878Z,100360.25
2023-05-25T05:58:08.036Z,100356.47
2023-05-25T06:00:35.184Z,100353.69
2023-05-25T06:03:02.417Z,100352.56
2023-05-25T06:05:30.715Z,100350.56
2023-05-25T06:07:58.726Z,100355.59
2023-05-25T06:10:25.957Z,100353.66
2023-05-25T06:12:53.802Z,100354.34
2023-05-25T06:15:21.419Z,100359.19
2023-05-25T06:17:50.458Z,100358.84
2023-05-25T06:20:18.244Z,100355.44
2023-05-25T06:22:46.468Z,100363.97
2023-05-25T06:25:14.030Z,100361.56
2023-05-25T06:27:41.272Z,100367.41
2023-05-25T06:30:08.949Z,100356.31
2023-05-25T06:32:36.865Z,100363.00
2023-05-25T06:35:04.845Z,100354.00
2023-05-25T06:37:37.970Z,100364.34
2023-05-25T06:40:09.329Z,100358.22
2023-05-25T06:42:37.707Z,100358.69
2023-05-25T06:45:07.526Z,100352.75
2023-05-25T06:47:36.023Z,100362.88
2023-05-25T06:50:04.064Z,100354.25
2023-05-25T06:52:31.636Z,100360.03
2023-05-25T06:54:58.708Z,100371.22
2023-05-25T06:57:25.814Z,100371.84
2023-05-25T06:59:52.853Z,100385.72
2023-05-25T07:02:20.931Z,100382.63
2023-05-25T07:04:48.107Z,100380.41
2023-05-25T07:07:15.192Z,100378.94
2023-05-25T07:09:42.203Z,100384.53
2023-05-25T07:12:10.956Z,100389.06
2023-05-25T07:14:38.350Z,100378.50
2023-05-25T07:17:05.631Z,100386.78
2023-05-25T07:19:32.632Z,100375.34
2023-05-25T07:21:59.646Z,100377.19
2023-05-25T07:24:26.692Z,100388.94
2023-05-25T07:26:53.743Z,100393.47
2023-05-25T07:29:20.928Z,100386.41
2023-05-25T07:31:48.089Z,100389.88
2023-05-25T07:34:15.507Z,100382.94
2023-05-25T07:36:42.482Z,100391.19
2023-05-25T07:39:11.221Z,100392.16
2023-05-25T07:41:38.987Z,100387.91
2023-05-25T07:44:05.949Z,100389.09
2023-05-25T07:46:33.151Z,100388.41
2023-05-25T07:49:00.184Z,100392.03
2023-05-25T07:51:30.021Z,100396.50
2023-05-25T07:53:58.358Z,100383.13
2023-05-25T07:56:26.509Z,100393.81
2023-05-25T07:58:53.539Z,100377.94
2023-05-25T08:01:20.706Z,100389.84
2023-05-25T08:03:50.059Z,100377.50
2023-05-25T08:06:17.709Z,100374.88
2023-05-25T08:08:44.975Z,100371.63
2023-05-25T08:11:12.326Z,100374.41
2023-05-25T08:13:39.549Z,100376.38
2023-05-25T08:16:06.641Z,100377.47
2023-05-25T08:18:33.633Z,100374.00
2023-05-25T08:21:01.216Z,100378.81
2023-05-25T08:23:28.220Z,100377.00
2023-05-25T08:25:55.255Z,100385.16
2023-05-25T08:28:22.563Z,100383.28
2023-05-25T08:30:49.816Z,100384.34
2023-05-25T08:33:16.930Z,100384.78
2023-05-25T08:35:44.165Z,100376.44
2023-05-25T08:38:11.415Z,100381.63
2023-05-25T08:40:43.256Z,100378.88
2023-05-25T08:43:10.433Z,100395.69
2023-05-25T08:45:39.578Z,100402.19
2023-05-25T08:48:23.792Z,100379.06
2023-05-25T08:51:05.509Z,100385.19
2023-05-25T08:53:37.339Z,100390.28
2023-05-25T08:56:30.488Z,100390.22
2023-05-25T08:59:12.269Z,100384.19
2023-05-25T09:01:45.880Z,100389.34
2023-05-25T09:04:14.078Z,100401.28
2023-05-25T09:06:41.307Z,100392.84
2023-05-25T09:09:09.492Z,100397.16
2023-05-25T09:11:40.551Z,100395.22
2023-05-25T09:14:09.061Z,100406.34
2023-05-25T09:16:38.352Z,100409.53
2023-05-25T09:19:05.706Z,100408.38
2023-05-25T09:21:32.768Z,100401.81
2023-05-25T09:24:01.443Z,100397.91
2023-05-25T09:26:28.649Z,100389.66
2023-05-25T09:28:56.002Z,100387.91
2023-05-25T09:31:25.592Z,100388.88
2023-05-25T09:33:59.713Z,100392.31
2023-05-25T09:36:27.043Z,100393.25
2023-05-25T09:38:56.376Z,100391.22
2023-05-25T09:41:27.475Z,100392.72
2023-05-25T09:44:09.651Z,100398.28
2023-05-25T09:46:39.224Z,100396.22
2023-05-25T09:49:09.035Z,100390.59
2023-05-25T09:51:37.026Z,100386.38
2023-05-25T09:54:08.648Z,100388.66
2023-05-25T09:56:36.359Z,100398.06
2023-05-25T09:59:03.661Z,100397.03
2023-05-25T10:01:33.590Z,100387.91
2023-05-25T10:04:04.786Z,100389.09
2023-05-25T10:06:33.998Z,100378.03
2023-05-25T10:09:03.292Z,100390.38
2023-05-25T10:11:31.446Z,100401.84
2023-05-25T10:14:03.678Z,100394.56
2023-05-25T10:16:34.816Z,100392.09
2023-05-25T10:19:12.944Z,100398.44
2023-05-25T10:21:42.017Z,100400.97
2023-05-25T10:24:44.188Z,100394.44
2023-05-25T10:27:27.136Z,100395.56
2023-05-25T10:29:57.119Z,100398.59
2023-05-25T10:32:25.122Z,100388.00
2023-05-25T10:34:53.453Z,100395.66
2023-05-25T10:37:20.802Z,100388.56
2023-05-25T10:39:49.767Z,100383.66
2023-05-25T10:42:18.978Z,100386.06
2023-05-25T10:44:46.632Z,100387.16
2023-05-25T10:47:16.395Z,100391.78
2023-05-25T10:49:58.594Z,100380.75
2023-05-25T10:52:30.605Z,100381.22
2023-05-25T10:55:01.683Z,100379.97
2023-05-25T10:57:29.076Z,100390.41
2023-05-25T11:00:06.356Z,100379.31
2023-05-25T11:02:55.981Z,100383.66
2023-05-25T11:05:36.018Z,100382.97
2023-05-25T11:08:06.487Z,100381.50
2023-05-25T11:10:50.615Z,100385.56
2023-05-25T11:13:43.976Z,100378.03
2023-05-25T11:16:40.071Z,100379.19
2023-05-25T11:19:15.044Z,100363.66
2023-05-25T11:21:44.989Z,100361.25
2023-05-25T11:24:17.701Z,100361.78
2023-05-25T11:27:14.126Z,100366.31
2023-05-25T11:29:41.788Z,100360.13
2023-05-25T11:32:14.548Z,100363.31
2023-05-25T11:34:46.581Z,100362.25
2023-05-25T11:37:21.066Z,100361.09
2023-05-25T11:39:49.840Z,100353.88
2023-05-25T11:42:19.559Z,100353.66
2023-05-25T11:44:46.547Z,100351.84
2023-05-25T11:47:18.513Z,100340.53
2023-05-25T11:49:49.567Z,100340.06
2023-05-25T11:52:18.876Z,100341.72
2023-05-25T11:54:47.057Z,100332.34
2023-05-25T11:57:24.859Z,100347.91
2023-05-25T12:00:00.105Z,100338.44
2023-05-25T12:02:27.150Z,100345.41
2023-05-25T12:05:01.268Z,100338.75
2023-05-25T12:07:29.981Z,100340.94
2023-05-25T12:10:13.884Z,100334.91
2023-05-25T12:12:48.614Z,100328.34
2023-05-25T12:15:21.145Z,100340.53
2023-05-25T12:17:49.223Z,100330.28
2023-05-25T12:20:18.028Z,100328.13
2023-05-25T12:22:46.468Z,100327.63
2023-05-25T12:25:15.794Z,100316.63
2023-05-25T12:27:43.720Z,100311.34
2023-05-25T12:30:11.905Z,100314.56
2023-05-25T12:33:03.725Z,100315.00
2023-05-25T12:35:47.947Z,100311.66
2023-05-25T12:38:18.630Z,100321.88
2023-05-25T12:40:46.101Z,100315.38
2023-05-25T12:43:15.355Z,100316.13
2023-05-25T12:45:43.618Z,100314.59
2023-05-25T12:48:10.970Z,100325.25
2023-05-25T12:50:38.305Z,100319.66
2023-05-25T12:53:05.529Z,100319.47
2023-05-25T12:55:35.649Z,100320.38
2023-05-25T12:58:05.749Z,100321.53
2023-05-25T13:00:39.258Z,100312.16
2023-05-25T13:03:07.821Z,100329.78
2023-05-25T13:05:36.934Z,100324.72
2023-05-25T13:08:05.964Z,100318.13
2023-05-25T13:10:33.837Z,100324.69
2023-05-25T13:13:01.256Z,100324.81
2023-05-25T13:15:29.106Z,100308.84
2023-05-25T13:18:00.219Z,100309.44
2023-05-25T13:20:32.332Z,100299.59
2023-05-25T13:22:59.660Z,100304.66
2023-05-25T13:25:29.788Z,100310.97
2023-05-25T13:27:59.613Z,100316.63
2023-05-25T13:30:26.899Z,100314.81
2023-05-25T13:32:53.996Z,100315.84
2023-05-25T13:35:37.607Z,100304.78
2023-05-25T13:38:05.227Z,100301.94
2023-05-25T13:40:32.270Z,100303.84
2023-05-25T13:42:59.355Z,100299.09
2023-05-25T13:45:26.416Z,100303.38
2023-05-25T13:47:53.531Z,100298.22
2023-05-25T13:50:20.655Z,100303.94
2023-05-25T13:52:50.238Z,100298.19
2023-05-25T13:55:17.386Z,100296.38
2023-05-25T13:57:44.416Z,100291.31
2023-05-25T14:00:12.287Z,100292.41
2023-05-25T14:02:39.464Z,100273.06
2023-05-25T14:05:06.952Z,100283.72
2023-05-25T14:07:33.982Z,100278.53
2023-05-25T14:10:01.178Z,100282.13
2023-05-25T14:12:28.540Z,100283.88
2023-05-25T14:14:57.811Z,100288.28
2023-05-25T14:17:25.134Z,100282.84
2023-05-25T14:19:52.213Z,100279.81
2023-05-25T14:22:19.458Z,100277.72
2023-05-25T14:24:46.544Z,100285.94
2023-05-25T14:27:13.715Z,100284.81
2023-05-25T14:29:40.808Z,100273.59
2023-05-25T14:32:07.828Z,100279.28
2023-05-25T14:34:34.855Z,100267.59
2023-05-25T14:37:01.896Z,100265.00
2023-05-25T14:39:29.729Z,100264.16
2023-05-25T14:41:56.695Z,100267.50
2023-05-25T14:44:24.143Z,100267.03
2023-05-25T14:46:51.264Z,100252.25
2023-05-25T14:49:18.540Z,100267.03
2023-05-25T14:51:45.805Z,100279.06
2023-05-25T14:54:13.642Z,100273.91
2023-05-25T14:56:40.751Z,100275.50
2023-05-25T14:59:08.031Z,100275.06
2023-05-25T15:01:35.574Z,100266.13
2023-05-25T15:04:03.224Z,100269.09
2023-05-25T15:06:31.951Z,100280.75
2023-05-25T15:08:58.915Z,100273.34
2023-05-25T15:11:26.794Z,100267.81
2023-05-25T15:13:53.821Z,100263.50
2023-05-25T15:16:21.149Z,100248.53
2023-05-25T15:18:48.263Z,100242.41
2023-05-25T15:21:15.247Z,100254.84
2023-05-25T15:23:42.299Z,100259.94
2023-05-25T15:26:11.476Z,100267.59
2023-05-25T15:28:38.585Z,100268.25
2023-05-25T15:31:05.707Z,100264.16
2023-05-25T15:33:51.565Z,100259.56
2023-05-25T15:36:19.692Z,100254.75
2023-05-25T15:38:49.073Z,100251.41
2023-05-25T15:41:17.408Z,100248.91
2023-05-25T15:43:57.650Z,100255.03
2023-05-25T15:46:25.019Z,100252.16
2023-05-25T15:48:52.030Z,100263.00
2023-05-25T15:51:19.270Z,100255.94
2023-05-25T15:53:46.919Z,100256.38
2023-05-25T15:56:14.291Z,100257.94
2023-05-25T15:58:41.587Z,100256.59
2023-05-25T16:01:09.185Z,100250.50
2023-05-25T16:03:37.288Z,100251.94
2023-05-25T16:06:04.547Z,100254.63
2023-05-25T16:08:31.713Z,100252.44
2023-05-25T16:10:58.726Z,100252.38
2023-05-25T16:13:25.718Z,100249.19
2023-05-25T16:15:52.869Z,100255.47
2023-05-25T16:18:19.899Z,100248.06
2023-05-25T16:20:47.620Z,100249.88
2023-05-25T16:23:16.279Z,100250.31
2023-05-25T16:25:43.479Z,100250.03
2023-05-25T16:28:10.829Z,100249.28
2023-05-25T16:30:37.792Z,100247.75
2023-05-25T16:33:04.813Z,100254.47
2023-05-25T16:35:31.855Z,100247.97
2023-05-25T16:37:59.023Z,100253.91
2023-05-25T16:40:26.196Z,100256.50
2023-05-25T16:42:53.173Z,100248.13
2023-05-25T16:45:22.865Z,100242.19
2023-05-25T16:47:49.943Z,100239.16
2023-05-25T16:50:18.324Z,100236.88
2023-05-25T16:52:45.439Z,100245.53
2023-05-25T16:55:12.897Z,100243.03
2023-05-25T16:57:39.936Z,100233.94
2023-05-25T17:00:08.085Z,100237.22
2023-05-25T17:02:35.157Z,100242.84
2023-05-25T17:05:06.290Z,100239.75
2023-05-25T17:07:34.403Z,100246.56
2023-05-25T17:10:02.036Z,100238.75
2023-05-25T17:12:29.031Z,100242.13
2023-05-25T17:14:56.207Z,100244.81
2023-05-25T17:17:23.288Z,100240.97
2023-05-25T17:19:50.367Z,100246.06
2023-05-25T17:22:17.527Z,100250.00
2023-05-25T17:24:44.542Z,100243.63
2023-05-25T17:27:11.653Z,100249.19
2023-05-25T17:29:38.882Z,100240.28
2023-05-25T17:32:06.369Z,100247.63
2023-05-25T17:34:33.530Z,100245.00
2023-05-25T17:37:00.555Z,100248.81
2023-05-25T17:39:27.549Z,100241.09
2023-05-25T17:41:54.585Z,100243.03
2023-05-25T17:44:21.628Z,100246.75
2023-05-25T17:46:48.671Z,100247.25
2023-05-25T17:49:15.695Z,100240.56
2023-05-25T17:51:42.683Z,100253.56
2023-05-25T17:54:15.137Z,100250.56
2023-05-25T17:56:42.202Z,100260.22
2023-05-25T17:59:09.620Z,100251.22
2023-05-25T18:01:38.315Z,100253.94
2023-05-25T18:04:05.637Z,100255.78
2023-05-25T18:06:32.908Z,100255.56
2023-05-25T18:08:59.913Z,100259.19
2023-05-25T18:11:28.295Z,100252.88
2023-05-25T18:13:55.551Z,100257.19
2023-05-25T18:16:22.619Z,100260.00
2023-05-25T18:18:49.622Z,100263.63
2023-05-25T18:21:17.194Z,100263.22
2023-05-25T18:23:44.213Z,100257.84
2023-05-25T18:26:11.204Z,100266.16
2023-05-25T18:28:38.191Z,100265.03
2023-05-25T18:31:05.326Z,100268.28
2023-05-25T18:33:32.359Z,100268.72
2023-05-25T18:35:59.411Z,100270.78
2023-05-25T18:38:26.408Z,100267.31
2023-05-25T18:40:53.719Z,100275.59
2023-05-25T18:43:20.849Z,100279.69
2023-05-25T18:45:47.907Z,100279.38
2023-05-25T18:48:16.076Z,100270.53
2023-05-25T18:50:44.664Z,100280.00
2023-05-25T18:53:11.909Z,100273.00
2023-05-25T18:55:39.177Z,100283.50
2023-05-25T18:58:06.900Z,100280.03
2023-05-25T19:00:34.183Z,100286.34
2023-05-25T19:03:01.367Z,100285.28
2023-05-25T19:05:28.559Z,100292.97
2023-05-25T19:07:59.575Z,100297.03
2023-05-25T19:10:27.547Z,100294.84
2023-05-25T19:12:54.988Z,100296.22
2023-05-25T19:15:22.197Z,100298.34
2023-05-25T19:17:49.317Z,100308.63
2023-05-25T19:20:16.577Z,100302.03
2023-05-25T19:22:43.769Z,100307.44
2023-05-25T19:25:10.845Z,100301.38
2023-05-25T19:27:37.878Z,100302.34
2023-05-25T19:30:05.416Z,100312.06
2023-05-25T19:32:32.642Z,100328.03
2023-05-25T19:34:59.706Z,100319.50
2023-05-25T19:37:27.221Z,100318.28
2023-05-25T19:39:54.240Z,100321.44
2023-05-25T19:42:21.571Z,100324.59
2023-05-25T19:44:48.706Z,100329.31
2023-05-25T19:47:15.838Z,100324.28
2023-05-25T19:49:43.161Z,100324.19
2023-05-25T19:52:10.147Z,100326.25
2023-05-25T19:54:38.012Z,100333.44
2023-05-25T19:57:05.223Z,100329.22
2023-05-25T19:59:32.224Z,100327.16
2023-05-25T20:01:59.353Z,100327.03
2023-05-25T20:04:26.425Z,100327.72
2023-05-25T20:06:53.818Z,100334.63
2023-05-25T20:09:29.385Z,100333.44
2023-05-25T20:12:00.096Z,100343.09
2023-05-25T20:14:27.161Z,100342.91
2023-05-25T20:16:56.799Z,100340.63
2023-05-25T20:19:23.897Z,100351.91
2023-05-25T20:21:51.596Z,100345.81
2023-05-25T20:24:18.944Z,100343.44
2023-05-25T20:26:45.975Z,100343.63
2023-05-25T20:29:15.869Z,100339.41
2023-05-25T20:31:43.136Z,100352.31
2023-05-25T20:34:10.174Z,100352.47
2023-05-25T20:36:37.242Z,100344.22
2023-05-25T20:39:04.286Z,100350.41
2023-05-25T20:41:31.340Z,100353.50
2023-05-25T20:43:58.343Z,100360.72
2023-05-25T20:46:26.083Z,100350.03
2023-05-25T20:48:53.533Z,100353.69
2023-05-25T20:51:21.690Z,100354.66
2023-05-25T20:53:48.758Z,100358.09
2023-05-25T20:56:16.013Z,100359.88
2023-05-25T20:58:43.569Z,100369.75
2023-05-25T21:01:10.945Z,100358.00
2023-05-25T21:03:38.626Z,100363.31
2023-05-25T21:06:06.219Z,100361.31
2023-05-25T21:08:33.665Z,100357.44
2023-05-25T21:11:00.984Z,100360.28
2023-05-25T21:13:27.993Z,100364.50
2023-05-25T21:15:55.073Z,100364.41
2023-05-25T21:18:22.174Z,100375.09
2023-05-25T21:20:49.358Z,100368.53
2023-05-25T21:23:16.429Z,100374.91
2023-05-25T21:25:43.737Z,100377.47
2023-05-25T21:28:10.995Z,100376.31
2023-05-25T21:30:37.999Z,100373.50
2023-05-25T21:33:05.204Z,100379.59
2023-05-25T21:35:32.305Z,100382.19
2023-05-25T21:37:59.340Z,100383.72
2023-05-25T21:40:26.376Z,100389.81
2023-05-25T21:42:53.525Z,100380.47
2023-05-25T21:45:21.209Z,100387.44
2023-05-25T21:47:48.353Z,100387.31
2023-05-25T21:50:15.708Z,100390.50
2023-05-25T21:52:42.747Z,100390.34
2023-05-25T21:55:10.043Z,100387.28
2023-05-25T21:57:37.121Z,100395.28
2023-05-25T22:00:06.435Z,100393.84
2023-05-25T22:02:40.291Z,100395.81
2023-05-25T22:05:07.621Z,100401.91
2023-05-25T22:07:34.720Z,100398.84
2023-05-25T22:10:01.722Z,100405.78
2023-05-25T22:12:29.224Z,100408.38
2023-05-25T22:14:56.210Z,100410.31
2023-05-25T22:17:23.240Z,100415.59
2023-05-25T22:20:03.182Z,100419.19
2023-05-25T22:22:34.756Z,100415.75
2023-05-25T22:25:01.797Z,100411.03
2023-05-25T22:27:28.855Z,100412.53
2023-05-25T22:29:55.972Z,100420.50
2023-05-25T22:32:23.176Z,100423.25
2023-05-25T22:34:50.460Z,100420.63
2023-05-25T22:37:17.604Z,100424.00
2023-05-25T22:39:44.729Z,100423.25
2023-05-25T22:42:11.756Z,100425.78
2023-05-25T22:44:38.789Z,100426.69
2023-05-25T22:47:06.856Z,100432.97
2023-05-25T22:49:41.300Z,100424.75
2023-05-25T22:52:11.971Z,100425.63
2023-05-25T22:54:39.203Z,100433.56
2023-05-25T22:57:08.264Z,100432.56
2023-05-25T22:59:35.587Z,100434.06
2023-05-25T23:02:02.747Z,100447.41
2023-05-25T23:04:29.773Z,100443.72
2023-05-25T23:06:56.774Z,100453.28
2023-05-25T23:09:23.800Z,100454.16
2023-05-25T23:11:50.785Z,100454.22
2023-05-25T23:14:17.763Z,100455.72
2023-05-25T23:16:48.391Z,100463.81
2023-05-25T23:19:16.592Z,100461.16
2023-05-25T23:21:43.983Z,100459.13
2023-05-25T23:24:10.976Z,100470.34
2023-05-25T23:26:37.976Z,100463.94
2023-05-25T23:29:05.046Z,100466.22
2023-05-25T23:31:32.237Z,100473.13
2023-05-25T23:33:59.285Z,100474.59
2023-05-25T23:36:26.358Z,100476.03
2023-05-25T23:38:53.468Z,100486.44
2023-05-25T23:41:21.914Z,100477.94
2023-05-25T23:43:48.914Z,100481.31
2023-05-25T23:46:17.248Z,100482.78
2023-05-25T23:48:45.871Z,100476.13
2023-05-25T23:51:13.156Z,100476.16
2023-05-25T23:53:40.238Z,100477.66
2023-05-25T23:56:07.498Z,100471.84
2023-05-25T23:58:34.644Z,100474.16
